sensor_id;sensor_type;location;lat;lon;timestamp;pressure;altitude;pressure_sealevel;temperature;humidity
32324;BME280;25666;44.350;9.222;2022-11-18T00:00:54;100043.25;;;15.16;100.00
32324;BME280;25666;44.350;9.222;2022-11-18T00:03:19;100034.03;;;15.15;100.00
32324;BME280;25666;44.350;9.222;2022-11-18T00:05:53;100038.44;;;15.27;100.00
32324;BME280;25666;44.350;9.222;2022-11-18T00:08:19;100046.06;;;15.30;100.00
32324;BME280;25666;44.350;9.222;2022-11-18T00:10:45;100066.50;;;15.30;100.00
32324;BME280;25666;44.350;9.222;2022-11-18T00:13:11;100069.66;;;15.08;100.00
32324;BME280;25666;44.350;9.222;2022-11-18T00:16:02;100058.06;;;15.20;100.00
32324;BME280;25666;44.350;9.222;2022-11-18T00:18:28;100060.47;;;15.25;100.00
32324;BME280;25666;44.350;9.222;2022-11-18T00:20:54;100057.69;;;15.28;100.00
32324;BME280;25666;44.350;9.222;2022-11-18T00:23:19;100047.63;;;15.17;100.00
32324;BME280;25666;44.350;9.222;2022-11-18T00:25:45;100044.84;;;15.27;100.00
32324;BME280;25666;44.350;9.222;2022-11-18T00:28:10;100028.41;;;15.26;100.00
32324;BME280;25666;44.350;9.222;2022-11-18T00:30:36;100021.63;;;15.27;100.00
32324;BME280;25666;44.350;9.222;2022-11-18T00:33:01;100019.22;;;15.29;100.00
32324;BME280;25666;44.350;9.222;2022-11-18T00:35:27;100023.63;;;15.30;100.00
32324;BME280;25666;44.350;9.222;2022-11-18T00:37:52;100015.63;;;15.21;100.00
32324;BME280;25666;44.350;9.222;2022-11-18T00:40:18;100009.19;;;15.17;100.00
32324;BME280;25666;44.350;9.222;2022-11-18T00:42:43;99993.19;;;15.21;100.00
32324;BME280;25666;44.350;9.222;2022-11-18T00:45:19;99998.38;;;15.23;100.00
32324;BME280;25666;44.350;9.222;2022-11-18T00:47:45;100011.59;;;15.26;100.00
32324;BME280;25666;44.350;9.222;2022-11-18T00:50:11;99994.38;;;15.27;100.00
32324;BME280;25666;44.350;9.222;2022-11-18T00:52:36;99983.16;;;15.13;100.00
32324;BME280;25666;44.350;9.222;2022-11-18T00:55:02;99967.13;;;15.14;100.00
32324;BME280;25666;44.350;9.222;2022-11-18T00:57:28;99956.75;;;15.21;100.00
32324;BME280;25666;44.350;9.222;2022-11-18T00:59:53;99942.31;;;15.23;100.00
32324;BME280;25666;44.350;9.222;2022-11-18T01:02:19;99933.91;;;15.26;100.00
32324;BME280;25666;44.350;9.222;2022-11-18T01:04:44;99929.91;;;15.24;100.00
32324;BME280;25666;44.350;9.222;2022-11-18T01:07:10;99928.28;;;15.26;100.00
32324;BME280;25666;44.350;9.222;2022-11-18T01:09:36;99919.88;;;15.26;100.00
32324;BME280;25666;44.350;9.222;2022-11-18T01:12:01;99927.91;;;15.21;100.00
32324;BME280;25666;44.350;9.222;2022-11-18T01:14:45;99915.50;;;15.08;100.00
32324;BME280;25666;44.350;9.222;2022-11-18T01:17:11;99915.47;;;15.04;100.00
32324;BME280;25666;44.350;9.222;2022-11-18T01:19:36;99909.88;;;15.00;100.00
32324;BME280;25666;44.350;9.222;2022-11-18T01:22:02;99899.09;;;14.99;100.00
32324;BME280;25666;44.350;9.222;2022-11-18T01:24:29;99915.91;;;15.10;100.00
32324;BME280;25666;44.350;9.222;2022-11-18T01:26:55;99913.91;;;15.07;100.00
32324;BME280;25666;44.350;9.222;2022-11-18T01:29:21;99917.50;;;15.11;100.00
32324;BME280;25666;44.350;9.222;2022-11-18T01:31:46;99915.09;;;14.95;100.00
32324;BME280;25666;44.350;9.222;2022-11-18T01:34:12;99895.09;;;15.00;100.00
32324;BME280;25666;44.350;9.222;2022-11-18T01:36:37;99885.06;;;15.10;100.00
32324;BME280;25666;44.350;9.222;2022-11-18T01:39:03;99897.47;;;15.01;100.00
32324;BME280;25666;44.350;9.222;2022-11-18T01:41:29;99903.47;;;15.03;100.00
32324;BME280;25666;44.350;9.222;2022-11-18T01:44:04;99905.88;;;15.05;100.00
32324;BME280;25666;44.350;9.222;2022-11-18T01:46:32;99925.09;;;15.10;100.00
32324;BME280;25666;44.350;9.222;2022-11-18T01:48:59;99944.31;;;15.08;100.00
32324;BME280;25666;44.350;9.222;2022-11-18T01:51:36;99963.94;;;14.97;100.00
32324;BME280;25666;44.350;9.222;2022-11-18T01:54:28;99973.91;;;14.88;100.00
32324;BME280;25666;44.350;9.222;2022-11-18T01:56:58;99988.34;;;14.86;100.00
32324;BME280;25666;44.350;9.222;2022-11-18T01:59:27;100009.94;;;14.86;100.00
32324;BME280;25666;44.350;9.222;2022-11-18T02:01:55;100028.75;;;14.85;100.00
32324;BME280;25666;44.350;9.222;2022-11-18T02:04:21;100034.38;;;14.92;100.00
32324;BME280;25666;44.350;9.222;2022-11-18T02:06:47;100029.59;;;14.96;100.00
32324;BME280;25666;44.350;9.222;2022-11-18T02:09:14;100021.59;;;15.02;100.00
32324;BME280;25666;44.350;9.222;2022-11-18T02:11:40;100002.00;;;15.06;100.00
32324;BME280;25666;44.350;9.222;2022-11-18T02:14:26;99985.19;;;15.09;100.00
32324;BME280;25666;44.350;9.222;2022-11-18T02:30:46;99966.34;;;15.24;100.00
32324;BME280;25666;44.350;9.222;2022-11-18T02:33:25;99961.56;;;15.28;100.00
32324;BME280;25666;44.350;9.222;2022-11-18T02:36:01;99957.53;;;15.29;100.00
32324;BME280;25666;44.350;9.222;2022-11-18T02:38:33;99945.91;;;15.23;100.00
32324;BME280;25666;44.350;9.222;2022-11-18T02:41:07;99934.31;;;15.21;100.00
32324;BME280;25666;44.350;9.222;2022-11-18T02:43:43;99909.09;;;15.25;100.00
32324;BME280;25666;44.350;9.222;2022-11-18T02:46:14;99911.47;;;15.26;100.00
32324;BME280;25666;44.350;9.222;2022-11-18T02:48:47;99893.84;;;15.26;100.00
32324;BME280;25666;44.350;9.222;2022-11-18T02:51:18;99877.44;;;15.28;100.00
32324;BME280;25666;44.350;9.222;2022-11-18T02:53:47;99850.22;;;15.25;100.00
32324;BME280;25666;44.350;9.222;2022-11-18T02:56:14;99844.19;;;15.23;100.00
32324;BME280;25666;44.350;9.222;2022-11-18T02:58:41;99851.41;;;15.20;100.00
32324;BME280;25666;44.350;9.222;2022-11-18T03:01:15;99864.63;;;15.20;100.00
32324;BME280;25666;44.350;9.222;2022-11-18T03:03:42;99875.06;;;15.16;100.00
32324;BME280;25666;44.350;9.222;2022-11-18T03:08:53;99875.44;;;15.14;100.00
32324;BME280;25666;44.350;9.222;2022-11-18T03:11:27;99868.66;;;15.22;100.00
32324;BME280;25666;44.350;9.222;2022-11-18T03:16:55;99870.22;;;15.16;100.00
32324;BME280;25666;44.350;9.222;2022-11-18T03:25:43;99870.22;;;15.20;100.00
32324;BME280;25666;44.350;9.222;2022-11-18T03:30:45;99870.66;;;15.22;100.00
32324;BME280;25666;44.350;9.222;2022-11-18T03:33:19;99869.41;;;15.23;100.00
32324;BME280;25666;44.350;9.222;2022-11-18T03:35:49;99880.25;;;15.21;100.00
32324;BME280;25666;44.350;9.222;2022-11-18T03:38:22;99880.63;;;15.19;100.00
32324;BME280;25666;44.350;9.222;2022-11-18T03:40:54;99884.25;;;15.23;100.00
32324;BME280;25666;44.350;9.222;2022-11-18T03:43:24;99882.66;;;15.22;100.00
32324;BME280;25666;44.350;9.222;2022-11-18T03:45:54;99889.47;;;15.18;100.00
32324;BME280;25666;44.350;9.222;2022-11-18T03:48:28;99882.28;;;15.06;100.00
32324;BME280;25666;44.350;9.222;2022-11-18T03:51:01;99879.06;;;15.15;100.00
32324;BME280;25666;44.350;9.222;2022-11-18T03:53:32;99864.63;;;15.16;100.00
32324;BME280;25666;44.350;9.222;2022-11-18T03:56:05;99857.00;;;15.17;100.00
32324;BME280;25666;44.350;9.222;2022-11-18T03:58:41;99859.03;;;15.13;100.00
32324;BME280;25666;44.350;9.222;2022-11-18T04:01:14;99873.44;;;15.08;100.00
32324;BME280;25666;44.350;9.222;2022-11-18T04:03:41;99884.66;;;15.04;100.00
32324;BME280;25666;44.350;9.222;2022-11-18T04:06:37;99884.28;;;15.02;100.00
32324;BME280;25666;44.350;9.222;2022-11-18T04:09:09;99877.47;;;15.03;100.00
32324;BME280;25666;44.350;9.222;2022-11-18T04:11:42;99881.06;;;14.96;100.00
32324;BME280;25666;44.350;9.222;2022-11-18T04:14:35;99869.44;;;14.94;100.00
32324;BME280;25666;44.350;9.222;2022-11-18T04:17:12;99863.03;;;14.97;100.00
32324;BME280;25666;44.350;9.222;2022-11-18T04:19:38;99869.06;;;15.03;100.00
32324;BME280;25666;44.350;9.222;2022-11-18T04:22:04;99863.84;;;14.94;100.00
32324;BME280;25666;44.350;9.222;2022-11-18T04:24:30;99874.66;;;14.92;100.00
32324;BME280;25666;44.350;9.222;2022-11-18T04:26:56;99881.47;;;14.95;100.00
32324;BME280;25666;44.350;9.222;2022-11-18T04:29:21;99879.06;;;14.83;100.00
32324;BME280;25666;44.350;9.222;2022-11-18T04:31:47;99873.88;;;14.74;100.00
32324;BME280;25666;44.350;9.222;2022-11-18T04:34:12;99883.44;;;14.70;100.00
32324;BME280;25666;44.350;9.222;2022-11-18T04:36:38;99891.06;;;14.66;100.00
32324;BME280;25666;44.350;9.222;2022-11-18T04:39:04;99894.25;;;14.57;100.00
32324;BME280;25666;44.350;9.222;2022-11-18T04:41:29;99885.03;;;14.42;100.00
32324;BME280;25666;44.350;9.222;2022-11-18T04:44:13;99901.84;;;14.46;100.00
32324;BME280;25666;44.350;9.222;2022-11-18T04:46:43;99910.59;;;14.41;100.00
32324;BME280;25666;44.350;9.222;2022-11-18T04:49:10;99916.56;;;14.32;100.00
32324;BME280;25666;44.350;9.222;2022-11-18T04:51:37;99911.38;;;14.31;100.00
32324;BME280;25666;44.350;9.222;2022-11-18T04:54:03;99909.00;;;14.33;100.00
32324;BME280;25666;44.350;9.222;2022-11-18T04:56:30;99897.81;;;14.36;100.00
32324;BME280;25666;44.350;9.222;2022-11-18T04:58:57;99902.22;;;14.37;100.00
32324;BME280;25666;44.350;9.222;2022-11-18T05:01:23;99890.19;;;14.33;100.00
32324;BME280;25666;44.350;9.222;2022-11-18T05:03:49;99890.97;;;14.30;100.00
32324;BME280;25666;44.350;9.222;2022-11-18T05:06:14;99894.94;;;14.29;100.00
32324;BME280;25666;44.350;9.222;2022-11-18T05:08:40;99891.75;;;14.24;100.00
32324;BME280;25666;44.350;9.222;2022-11-18T05:11:06;99881.72;;;14.19;100.00
32324;BME280;25666;44.350;9.222;2022-11-18T05:13:51;99875.34;;;14.19;100.00
32324;BME280;25666;44.350;9.222;2022-11-18T05:16:16;99874.50;;;14.11;100.00
32324;BME280;25666;44.350;9.222;2022-11-18T05:18:42;99874.91;;;14.06;100.00
32324;BME280;25666;44.350;9.222;2022-11-18T05:21:07;99877.25;;;13.97;100.00
32324;BME280;25666;44.350;9.222;2022-11-18T05:23:33;99876.81;;;13.88;100.00
32324;BME280;25666;44.350;9.222;2022-11-18T05:26:10;99874.47;;;14.01;100.00
32324;BME280;25666;44.350;9.222;2022-11-18T05:28:36;99883.25;;;13.95;100.00
32324;BME280;25666;44.350;9.222;2022-11-18T05:31:09;99880.78;;;13.80;100.00
32324;BME280;25666;44.350;9.222;2022-11-18T05:33:35;99879.16;;;13.68;100.00
32324;BME280;25666;44.350;9.222;2022-11-18T05:36:05;99874.75;;;13.67;100.00
32324;BME280;25666;44.350;9.222;2022-11-18T05:38:32;99874.78;;;13.74;100.00
32324;BME280;25666;44.350;9.222;2022-11-18T05:40:58;99883.56;;;13.73;100.00
32324;BME280;25666;44.350;9.222;2022-11-18T05:43:23;99883.97;;;13.71;100.00
32324;BME280;25666;44.350;9.222;2022-11-18T05:45:50;99877.16;;;13.72;100.00
32324;BME280;25666;44.350;9.222;2022-11-18T05:48:16;99879.47;;;13.60;100.00
32324;BME280;25666;44.350;9.222;2022-11-18T05:50:45;99878.31;;;13.61;100.00
32324;BME280;25666;44.350;9.222;2022-11-18T05:53:11;99875.13;;;13.62;100.00
32324;BME280;25666;44.350;9.222;2022-11-18T05:55:57;99874.31;;;13.62;100.00
32324;BME280;25666;44.350;9.222;2022-11-18T05:58:24;99878.25;;;13.54;100.00
32324;BME280;25666;44.350;9.222;2022-11-18T06:00:52;99880.66;;;13.52;100.00
32324;BME280;25666;44.350;9.222;2022-11-18T06:03:28;99893.84;;;13.55;100.00
32324;BME280;25666;44.350;9.222;2022-11-18T06:05:55;99900.19;;;13.48;100.00
32324;BME280;25666;44.350;9.222;2022-11-18T06:08:24;99898.19;;;13.45;100.00
32324;BME280;25666;44.350;9.222;2022-11-18T06:10:51;99904.97;;;13.48;100.00
32324;BME280;25666;44.350;9.222;2022-11-18T06:13:23;99903.00;;;13.48;100.00
32324;BME280;25666;44.350;9.222;2022-11-18T06:15:51;99917.38;;;13.47;100.00
32324;BME280;25666;44.350;9.222;2022-11-18T06:18:23;99921.41;;;13.53;100.00
32324;BME280;25666;44.350;9.222;2022-11-18T06:20:52;99919.69;;;13.37;100.00
32324;BME280;25666;44.350;9.222;2022-11-18T06:23:20;99935.53;;;13.19;100.00
32324;BME280;25666;44.350;9.222;2022-11-18T06:25:46;99928.34;;;13.18;100.00
32324;BME280;25666;44.350;9.222;2022-11-18T06:28:13;99935.97;;;13.21;100.00
32324;BME280;25666;44.350;9.222;2022-11-18T06:30:39;99940.41;;;13.29;100.00
32324;BME280;25666;44.350;9.222;2022-11-18T06:33:05;99928.44;;;13.32;100.00
32324;BME280;25666;44.350;9.222;2022-11-18T06:35:31;99930.47;;;13.35;100.00
32324;BME280;25666;44.350;9.222;2022-11-18T06:37:56;99925.69;;;13.36;100.00
32324;BME280;25666;44.350;9.222;2022-11-18T06:40:22;99930.44;;;13.32;100.00
32324;BME280;25666;44.350;9.222;2022-11-18T06:42:47;99922.47;;;13.37;100.00
32324;BME280;25666;44.350;9.222;2022-11-18T06:45:31;99918.16;;;13.44;100.00
32324;BME280;25666;44.350;9.222;2022-11-18T06:47:58;99923.38;;;13.49;100.00
32324;BME280;25666;44.350;9.222;2022-11-18T06:50:25;99923.75;;;13.47;100.00
32324;BME280;25666;44.350;9.222;2022-11-18T06:52:51;99931.00;;;13.55;100.00
32324;BME280;25666;44.350;9.222;2022-11-18T06:55:17;99930.16;;;13.51;100.00
32324;BME280;25666;44.350;9.222;2022-11-18T06:57:43;99937.75;;;13.51;100.00
32324;BME280;25666;44.350;9.222;2022-11-18T07:00:09;99933.78;;;13.52;100.00
32324;BME280;25666;44.350;9.222;2022-11-18T07:02:35;99945.72;;;13.49;100.00
32324;BME280;25666;44.350;9.222;2022-11-18T07:05:01;99961.88;;;13.22;100.00
32324;BME280;25666;44.350;9.222;2022-11-18T07:07:26;99970.63;;;13.17;100.00
32324;BME280;25666;44.350;9.222;2022-11-18T07:09:52;99985.78;;;13.16;100.00
32324;BME280;25666;44.350;9.222;2022-11-18T07:12:17;99982.72;;;13.31;100.00
32324;BME280;25666;44.350;9.222;2022-11-18T07:14:43;99986.09;;;13.51;100.00
32324;BME280;25666;44.350;9.222;2022-11-18T07:17:08;99986.97;;;13.66;100.00
32324;BME280;25666;44.350;9.222;2022-11-18T07:19:34;99985.78;;;13.67;100.00
32324;BME280;25666;44.350;9.222;2022-11-18T07:21:59;99981.06;;;13.74;100.00
32324;BME280;25666;44.350;9.222;2022-11-18T07:24:25;99999.06;;;13.80;100.00
32324;BME280;25666;44.350;9.222;2022-11-18T07:26:52;99995.03;;;13.74;100.00
32324;BME280;25666;44.350;9.222;2022-11-18T07:29:17;99998.69;;;13.85;100.00
32324;BME280;25666;44.350;9.222;2022-11-18T07:31:43;99992.75;;;13.94;100.00
32324;BME280;25666;44.350;9.222;2022-11-18T07:34:08;99993.56;;;13.98;100.00
32324;BME280;25666;44.350;9.222;2022-11-18T07:36:34;99994.41;;;14.02;100.00
32324;BME280;25666;44.350;9.222;2022-11-18T07:39:00;99996.00;;;14.07;100.00
32324;BME280;25666;44.350;9.222;2022-11-18T07:41:28;100000.00;;;14.02;100.00
32324;BME280;25666;44.350;9.222;2022-11-18T07:43:55;99996.00;;;14.07;100.00
32324;BME280;25666;44.350;9.222;2022-11-18T07:46:30;99998.03;;;14.10;100.00
32324;BME280;25666;44.350;9.222;2022-11-18T07:48:57;100002.47;;;14.14;100.00
32324;BME280;25666;44.350;9.222;2022-11-18T07:51:25;100000.09;;;14.20;100.00
32324;BME280;25666;44.350;9.222;2022-11-18T07:53:51;100005.34;;;14.32;100.00
32324;BME280;25666;44.350;9.222;2022-11-18T07:56:17;100003.69;;;14.20;100.00
32324;BME280;25666;44.350;9.222;2022-11-18T07:58:43;99998.47;;;14.15;100.00
32324;BME280;25666;44.350;9.222;2022-11-18T08:01:17;100001.69;;;14.17;100.00
32324;BME280;25666;44.350;9.222;2022-11-18T08:03:43;100004.09;;;14.26;100.00
32324;BME280;25666;44.350;9.222;2022-11-18T08:06:11;100013.78;;;14.35;100.00
32324;BME280;25666;44.350;9.222;2022-11-18T08:08:38;100011.03;;;14.42;100.00
32324;BME280;25666;44.350;9.222;2022-11-18T08:11:06;100016.66;;;14.50;100.00
32324;BME280;25666;44.350;9.222;2022-11-18T08:13:33;100018.25;;;14.54;100.00
32324;BME280;25666;44.350;9.222;2022-11-18T08:15:59;100011.06;;;14.60;100.00
32324;BME280;25666;44.350;9.222;2022-11-18T08:18:24;100016.69;;;14.67;100.00
32324;BME280;25666;44.350;9.222;2022-11-18T08:20:52;100019.91;;;14.66;100.00
32324;BME280;25666;44.350;9.222;2022-11-18T08:23:17;100017.91;;;14.70;100.00
32324;BME280;25666;44.350;9.222;2022-11-18T08:25:44;100017.94;;;14.80;100.00
32324;BME280;25666;44.350;9.222;2022-11-18T08:28:11;100017.16;;;14.83;100.00
32324;BME280;25666;44.350;9.222;2022-11-18T08:30:37;100025.97;;;14.92;100.00
32324;BME280;25666;44.350;9.222;2022-11-18T08:33:03;100019.16;;;15.00;100.00
32324;BME280;25666;44.350;9.222;2022-11-18T08:35:29;100017.19;;;15.05;100.00
32324;BME280;25666;44.350;9.222;2022-11-18T08:37:55;100023.63;;;15.09;100.00
32324;BME280;25666;44.350;9.222;2022-11-18T08:40:20;100020.03;;;15.15;100.00
32324;BME280;25666;44.350;9.222;2022-11-18T08:42:46;100020.81;;;15.19;100.00
32324;BME280;25666;44.350;9.222;2022-11-18T08:45:12;100025.63;;;15.29;100.00
32324;BME280;25666;44.350;9.222;2022-11-18T08:47:38;100016.84;;;15.34;100.00
32324;BME280;25666;44.350;9.222;2022-11-18T08:50:05;100010.00;;;15.42;100.00
32324;BME280;25666;44.350;9.222;2022-11-18T08:52:32;100014.47;;;15.50;100.00
32324;BME280;25666;44.350;9.222;2022-11-18T08:54:57;100020.03;;;15.58;100.00
32324;BME280;25666;44.350;9.222;2022-11-18T08:57:23;100014.44;;;15.72;100.00
32324;BME280;25666;44.350;9.222;2022-11-18T08:59:49;100015.22;;;15.79;100.00
32324;BME280;25666;44.350;9.222;2022-11-18T09:02:16;100011.59;;;15.86;100.00
32324;BME280;25666;44.350;9.222;2022-11-18T09:04:42;100017.59;;;15.91;100.00
32324;BME280;25666;44.350;9.222;2022-11-18T09:07:08;100020.81;;;15.93;100.00
32324;BME280;25666;44.350;9.222;2022-11-18T09:09:34;100011.19;;;15.94;100.00
32324;BME280;25666;44.350;9.222;2022-11-18T09:12:00;100020.38;;;16.02;100.00
32324;BME280;25666;44.350;9.222;2022-11-18T09:14:25;100021.97;;;16.10;100.00
32324;BME280;25666;44.350;9.222;2022-11-18T09:16:51;100014.34;;;16.11;100.00
32324;BME280;25666;44.350;9.222;2022-11-18T09:19:16;100015.94;;;16.19;100.00
32324;BME280;25666;44.350;9.222;2022-11-18T09:21:42;100013.09;;;16.26;100.00
32324;BME280;25666;44.350;9.222;2022-11-18T09:24:08;100024.31;;;16.29;100.00
32324;BME280;25666;44.350;9.222;2022-11-18T09:26:35;100029.94;;;16.33;100.00
32324;BME280;25666;44.350;9.222;2022-11-18T09:29:00;100028.72;;;16.37;100.00
32324;BME280;25666;44.350;9.222;2022-11-18T09:31:26;100021.47;;;16.43;100.00
32324;BME280;25666;44.350;9.222;2022-11-18T09:33:51;100030.28;;;16.45;100.00
32324;BME280;25666;44.350;9.222;2022-11-18T09:36:19;100019.84;;;16.46;100.00
32324;BME280;25666;44.350;9.222;2022-11-18T09:38:47;100021.84;;;16.45;100.00
32324;BME280;25666;44.350;9.222;2022-11-18T09:43:48;100019.03;;;16.45;100.00
32324;BME280;25666;44.350;9.222;2022-11-18T09:49:10;100036.31;;;16.47;100.00
32324;BME280;25666;44.350;9.222;2022-11-18T09:51:42;100029.88;;;16.50;100.00
32324;BME280;25666;44.350;9.222;2022-11-18T09:54:21;100023.47;;;16.57;100.00
32324;BME280;25666;44.350;9.222;2022-11-18T09:56:49;100023.00;;;16.66;100.00
32324;BME280;25666;44.350;9.222;2022-11-18T09:59:18;100031.00;;;16.71;100.00
32324;BME280;25666;44.350;9.222;2022-11-18T10:01:44;100029.38;;;16.73;100.00
32324;BME280;25666;44.350;9.222;2022-11-18T10:04:15;100038.22;;;16.79;100.00
32324;BME280;25666;44.350;9.222;2022-11-18T10:06:41;100033.34;;;16.86;100.00
32324;BME280;25666;44.350;9.222;2022-11-18T10:25:24;100036.50;;;16.95;100.00
32324;BME280;25666;44.350;9.222;2022-11-18T10:27:50;100030.81;;;17.06;100.00
32324;BME280;25666;44.350;9.222;2022-11-18T10:30:21;100036.00;;;17.07;100.00
32324;BME280;25666;44.350;9.222;2022-11-18T10:32:57;100032.81;;;17.09;100.00
32324;BME280;25666;44.350;9.222;2022-11-18T10:35:36;100038.00;;;17.10;100.00
32324;BME280;25666;44.350;9.222;2022-11-18T10:38:15;100029.94;;;17.20;100.00
32324;BME280;25666;44.350;9.222;2022-11-18T10:41:01;100019.38;;;17.31;100.00
32324;BME280;25666;44.350;9.222;2022-11-18T10:43:51;100025.78;;;17.35;100.00
32324;BME280;25666;44.350;9.222;2022-11-18T10:46:24;100026.22;;;17.30;100.00
32324;BME280;25666;44.350;9.222;2022-11-18T10:51:39;100023.03;;;17.28;100.00
32324;BME280;25666;44.350;9.222;2022-11-18T10:57:03;100024.53;;;17.39;100.00
32324;BME280;25666;44.350;9.222;2022-11-18T10:59:38;100029.34;;;17.42;100.00
32324;BME280;25666;44.350;9.222;2022-11-18T11:04:46;100016.41;;;17.52;100.00
32324;BME280;25666;44.350;9.222;2022-11-18T11:07:31;100015.47;;;17.69;83.22
32324;BME280;25666;44.350;9.222;2022-11-18T11:10:18;100017.13;;;17.67;79.88
32324;BME280;25666;44.350;9.222;2022-11-18T11:13:09;100007.41;;;17.71;68.44
32324;BME280;25666;44.350;9.222;2022-11-18T11:15:45;100015.69;;;17.89;59.36
32324;BME280;25666;44.350;9.222;2022-11-18T11:18:19;100012.28;;;18.04;56.06
32324;BME280;25666;44.350;9.222;2022-11-18T11:23:39;100005.38;;;18.12;60.09
32324;BME280;25666;44.350;9.222;2022-11-18T11:33:56;99998.09;;;18.15;57.30
32324;BME280;25666;44.350;9.222;2022-11-18T11:36:35;100008.06;;;18.23;56.21
32324;BME280;25666;44.350;9.222;2022-11-18T11:55:38;100005.84;;;18.41;53.56
32324;BME280;25666;44.350;9.222;2022-11-18T11:58:33;100008.56;;;18.52;52.18
32324;BME280;25666;44.350;9.222;2022-11-18T12:09:55;100005.38;;;18.50;52.10
32324;BME280;25666;44.350;9.222;2022-11-18T12:12:32;100000.59;;;18.43;55.63
32324;BME280;25666;44.350;9.222;2022-11-18T12:15:24;99996.31;;;18.32;57.67
32324;BME280;25666;44.350;9.222;2022-11-18T12:20:39;100007.94;;;18.34;60.76
32324;BME280;25666;44.350;9.222;2022-11-18T12:23:25;100003.06;;;18.38;56.47
32324;BME280;25666;44.350;9.222;2022-11-18T12:28:38;100006.16;;;18.16;63.33
32324;BME280;25666;44.350;9.222;2022-11-18T12:33:52;100019.50;;;18.43;50.22
32324;BME280;25666;44.350;9.222;2022-11-18T12:36:38;100010.66;;;18.44;46.33
32324;BME280;25666;44.350;9.222;2022-11-18T12:41:58;100004.56;;;18.49;47.10
32324;BME280;25666;44.350;9.222;2022-11-18T12:44:43;100016.84;;;18.66;44.01
32324;BME280;25666;44.350;9.222;2022-11-18T12:52:02;100005.88;;;18.71;43.23
32324;BME280;25666;44.350;9.222;2022-11-18T12:54:35;100011.97;;;18.70;43.59
32324;BME280;25666;44.350;9.222;2022-11-18T12:57:22;100027.56;;;18.78;41.95
32324;BME280;25666;44.350;9.222;2022-11-18T12:59:50;100026.22;;;18.86;40.59
32324;BME280;25666;44.350;9.222;2022-11-18T13:04:44;100019.19;;;18.71;40.28
32324;BME280;25666;44.350;9.222;2022-11-18T13:07:11;100023.94;;;18.78;38.58
32324;BME280;25666;44.350;9.222;2022-11-18T13:09:56;100021.06;;;18.81;39.78
32324;BME280;25666;44.350;9.222;2022-11-18T13:12:25;100023.13;;;18.77;39.01
32324;BME280;25666;44.350;9.222;2022-11-18T13:14:51;100029.81;;;18.60;40.23
32324;BME280;25666;44.350;9.222;2022-11-18T13:17:39;100029.88;;;18.83;38.67
32324;BME280;25666;44.350;9.222;2022-11-18T13:20:28;100032.38;;;18.78;39.15
32324;BME280;25666;44.350;9.222;2022-11-18T13:26:01;100033.28;;;18.71;40.17
32324;BME280;25666;44.350;9.222;2022-11-18T13:28:41;100035.81;;;18.62;44.35
32324;BME280;25666;44.350;9.222;2022-11-18T13:34:21;100043.94;;;18.19;53.58
32324;BME280;25666;44.350;9.222;2022-11-18T13:36:49;100042.34;;;18.18;48.91
32324;BME280;25666;44.350;9.222;2022-11-18T13:39:30;100050.41;;;18.16;50.60
32324;BME280;25666;44.350;9.222;2022-11-18T13:42:05;100048.50;;;18.06;61.64
32324;BME280;25666;44.350;9.222;2022-11-18T13:44:36;100050.53;;;18.02;73.67
32324;BME280;25666;44.350;9.222;2022-11-18T13:49:52;100040.63;;;17.90;98.37
32324;BME280;25666;44.350;9.222;2022-11-18T13:52:39;100048.38;;;17.79;100.00
32324;BME280;25666;44.350;9.222;2022-11-18T13:55:27;100049.56;;;17.82;100.00
32324;BME280;25666;44.350;9.222;2022-11-18T13:58:03;100045.19;;;17.74;100.00
32324;BME280;25666;44.350;9.222;2022-11-18T14:00:33;100049.25;;;17.69;100.00
32324;BME280;25666;44.350;9.222;2022-11-18T14:03:16;100058.13;;;17.64;100.00
32324;BME280;25666;44.350;9.222;2022-11-18T14:05:54;100048.94;;;17.60;100.00
32324;BME280;25666;44.350;9.222;2022-11-18T14:08:33;100047.31;;;17.59;100.00
32324;BME280;25666;44.350;9.222;2022-11-18T14:10:59;100049.38;;;17.48;100.00
32324;BME280;25666;44.350;9.222;2022-11-18T14:18:44;100049.88;;;17.36;100.00
32324;BME280;25666;44.350;9.222;2022-11-18T14:21:11;100042.69;;;17.31;100.00
32324;BME280;25666;44.350;9.222;2022-11-18T14:23:41;100042.72;;;17.28;100.00
32324;BME280;25666;44.350;9.222;2022-11-18T14:26:07;100049.97;;;17.25;100.00
32324;BME280;25666;44.350;9.222;2022-11-18T14:28:34;100056.00;;;17.24;100.00
32324;BME280;25666;44.350;9.222;2022-11-18T14:33:36;100087.78;;;17.13;100.00
32324;BME280;25666;44.350;9.222;2022-11-18T14:38:43;100094.66;;;17.12;100.00
32324;BME280;25666;44.350;9.222;2022-11-18T14:41:12;100104.72;;;17.10;100.00
32324;BME280;25666;44.350;9.222;2022-11-18T14:43:38;100111.53;;;17.05;100.00
32324;BME280;25666;44.350;9.222;2022-11-18T14:46:13;100109.94;;;17.01;100.00
32324;BME280;25666;44.350;9.222;2022-11-18T14:48:40;100095.50;;;16.99;100.00
32324;BME280;25666;44.350;9.222;2022-11-18T14:51:05;100097.53;;;16.95;100.00
32324;BME280;25666;44.350;9.222;2022-11-18T14:53:31;100104.75;;;16.96;100.00
32324;BME280;25666;44.350;9.222;2022-11-18T14:55:57;100110.41;;;16.89;100.00
32324;BME280;25666;44.350;9.222;2022-11-18T14:58:24;100099.97;;;16.89;100.00
32324;BME280;25666;44.350;9.222;2022-11-18T15:00:50;100108.03;;;16.84;100.00
32324;BME280;25666;44.350;9.222;2022-11-18T15:03:16;100106.84;;;16.78;100.00
32324;BME280;25666;44.350;9.222;2022-11-18T15:05:41;100099.59;;;16.84;100.00
32324;BME280;25666;44.350;9.222;2022-11-18T15:08:07;100099.22;;;16.82;100.00
32324;BME280;25666;44.350;9.222;2022-11-18T15:10:33;100090.75;;;16.85;100.00